Latest Weather Observations for Legendre Island

IDW60801

Issued at 1:35 pm WST Thursday 24 April 2014 (issued every 30 minutes, with the page automatically refreshed every 10 minutes)

About weather observations | Map of weather stations | Latest weather observations for WA | Other Formats
Station Details ID: 004095 Name: LEGENDRE ISLAND Lat: -20.36 Lon: 116.84 Height: 29.0 m
Data from the previous 72 hours. | See also: Recent months for locations in Western Australia
Date/Time
WST
Temp
°C
App
Temp
°C
Dew
Point
Rel
Hum
%
Delta-T
°C
Wind Press
QNH
hPa
Press
MSL
hPa
Rain
since 9 am
mm
Dir
 
Spd
km/h
Gust
km/h
Spd
kts
Gust
kts
24/01:30pm 31.1 33.6 22.4 60 5.9 W 13 17 7 9 1009.1 - -
24/01:00pm 31.1 33.5 21.6 57 6.4 W 11 17 6 9 1009.5 1009.3 -
24/12:30pm 31.5 34.0 21.7 56 6.6 W 11 17 6 9 1010.0 - -
24/12:00pm 31.7 34.2 21.8 55 6.7 WSW 11 17 6 9 1010.5 1010.3 -
24/11:30am 31.2 31.8 16.8 42 9.1 W 9 15 5 8 1010.8 - -
24/11:00am 31.5 33.7 21.1 54 7.0 WSW 11 13 6 7 1011.1 1010.9 -
24/10:30am 30.4 33.9 22.8 64 5.2 SW 9 13 5 7 1011.5 - -
24/10:00am 29.1 32.5 23.3 71 4.0 SSW 11 15 6 8 1011.6 1011.4 -
24/09:30am 28.8 32.1 23.9 75 3.4 SSW 13 17 7 9 1011.7 - -
24/09:00am 28.6 31.8 23.7 75 3.4 SW 13 17 7 9 1011.5 1011.3 -
24/08:30am 28.2 32.1 24.2 79 2.8 SW 11 15 6 8 1011.4 - -
24/08:00am 27.4 31.5 24.5 84 2.0 SW 11 15 6 8 1011.2 1011.0 -
24/07:30am 26.5 30.2 24.5 89 1.4 SW 13 17 7 9 1010.9 - -
24/07:00am 25.4 29.1 24.5 95 0.6 SW 13 15 7 8 1010.6 1010.4 -
24/06:30am 25.0 28.3 24.5 97 0.3 SSW 15 17 8 9 1010.3 - -
24/06:00am 25.3 28.5 24.3 94 0.7 SW 15 17 8 9 1010.3 1010.1 -
24/05:30am 25.1 28.0 23.9 93 0.8 SW 15 17 8 9 1010.1 - -
24/05:00am 25.1 28.2 24.2 95 0.6 SW 15 19 8 10 1009.8 1009.6 -
24/04:30am 24.9 28.9 24.4 97 0.3 SSW 11 13 6 7 1009.6 - -
24/04:00am 24.9 28.6 23.9 94 0.7 SW 11 13 6 7 1009.5 1009.3 -
24/03:30am 25.1 28.2 23.5 91 1.1 SW 13 15 7 8 1009.5 - -
24/03:00am 25.6 28.3 23.5 88 1.4 SW 15 19 8 10 1009.5 1009.3 -
24/02:30am 25.5 27.9 23.0 86 1.7 SW 15 17 8 9 1009.4 - -
24/02:00am 25.8 27.9 23.1 85 1.8 SW 17 20 9 11 1009.7 1009.5 -
24/01:30am 25.8 28.1 23.5 87 1.6 SW 17 20 9 11 1009.9 - -
24/01:00am 25.9 27.3 22.6 82 2.2 WSW 19 20 10 11 1010.3 1010.1 -
24/12:30am 25.6 28.1 22.5 83 2.1 WSW 13 15 7 8 1010.6 - -
24/12:00am 26.0 28.4 22.9 83 2.1 WSW 15 15 8 8 1010.7 1010.5 -
 
Date/Time
WST
Temp
°C
App
Temp
°C
Dew
Point
Rel
Hum
%
Delta-T
°C
Wind Press
QNH
hPa
Press
MSL
hPa
Rain
since 9 am
mm
Dir
 
Spd
km/h
Gust
km/h
Spd
kts
Gust
kts
23/11:30pm 25.9 28.5 22.6 82 2.2 WSW 13 17 7 9 1010.9 - -
23/11:00pm 26.4 27.7 22.3 78 2.8 SW 19 20 10 11 1011.1 1010.9 -
23/10:30pm 26.2 28.1 22.7 81 2.4 SW 17 19 9 10 1011.2 - -
23/10:00pm 26.3 28.1 21.9 77 2.9 WSW 15 19 8 10 1011.4 1011.2 -
23/09:30pm 26.4 27.8 21.8 76 3.1 WSW 17 19 9 10 1011.5 - -
23/09:00pm 26.2 28.0 21.8 77 2.9 W 15 17 8 9 1011.8 1011.6 -
23/08:30pm 26.1 28.0 21.3 75 3.2 WSW 13 15 7 8 1011.8 - -
23/08:00pm 26.1 28.0 21.3 75 3.2 WSW 13 15 7 8 1011.7 1011.5 -
23/07:30pm 26.6 28.4 21.1 72 3.6 WSW 13 15 7 8 1011.4 - -
23/07:00pm 26.8 28.6 21.1 71 3.8 W 13 17 7 9 1011.3 1011.1 -
23/06:30pm 27.0 28.4 20.3 66 4.4 W 13 13 7 7 1011.1 - -
23/06:00pm 27.6 29.2 19.9 63 5.0 W 11 13 6 7 1010.8 1010.6 -
23/05:30pm 28.9 30.4 19.8 58 6.0 WNW 11 15 6 8 1010.4 - -
23/05:00pm 29.8 31.3 19.8 55 6.6 WNW 11 15 6 8 1010.2 1010.0 -
23/04:30pm 30.1 31.8 20.1 55 6.6 WNW 11 15 6 8 1009.9 - -
23/04:00pm 30.3 31.2 19.3 51 7.2 NW 13 17 7 9 1009.8 1009.6 -
23/03:30pm 29.9 31.4 20.5 57 6.2 NW 13 15 7 8 1009.8 - -
23/03:00pm 30.1 31.9 20.4 56 6.4 NNW 11 13 6 7 1009.9 1009.7 -
23/02:30pm 30.2 32.5 20.7 56 6.3 N 9 13 5 7 1010.0 - -
23/02:00pm 30.3 32.6 21.4 59 6.0 N 11 13 6 7 1010.3 1010.1 -
23/01:30pm 30.0 32.2 21.1 59 5.9 N 11 13 6 7 1010.6 - -
23/01:00pm 30.1 32.7 21.2 59 6.0 N 9 11 5 6 1010.9 1010.7 -
23/12:30pm 30.1 32.3 20.4 56 6.4 N 9 13 5 7 1011.1 - -
23/12:00pm 30.4 32.3 20.6 55 6.5 N 11 13 6 7 1011.6 1011.4 -
23/11:30am 29.9 32.0 21.0 59 5.9 NNW 11 13 6 7 1011.9 - -
23/11:00am 29.9 32.4 21.8 62 5.5 NNW 11 13 6 7 1012.2 1012.0 -
23/10:30am 30.3 33.2 21.7 60 5.8 NNW 9 13 5 7 1012.7 - -
23/10:00am 29.4 32.5 21.4 62 5.4 N 7 9 4 5 1012.7 1012.6 -
23/09:30am 30.0 32.2 19.7 54 6.8 SSW 7 9 4 5 1012.8 - -
23/09:00am 28.6 31.7 21.4 65 4.8 SSW 7 9 4 5 1012.7 1012.6 -
23/08:30am 27.9 31.2 22.6 73 3.6 SSW 9 13 5 7 1012.6 - -
23/08:00am 27.1 30.2 22.9 78 2.9 SSW 11 13 6 7 1012.4 1012.2 -
23/07:30am 26.1 30.2 24.5 91 1.1 SSW 11 13 6 7 1012.2 - -
23/07:00am 25.0 28.6 24.3 96 0.5 S 13 15 7 8 1011.9 1011.7 -
23/06:30am 24.6 27.9 23.9 96 0.5 S 13 17 7 9 1011.7 - -
23/06:00am 25.0 27.6 24.0 94 0.7 S 17 20 9 11 1011.7 1011.5 -
23/05:30am 25.2 27.4 24.3 95 0.6 SSW 20 26 11 14 1011.5 - -
23/05:00am 25.4 27.8 24.2 93 0.8 SSW 19 22 10 12 1011.4 1011.2 -
23/04:30am 25.4 27.8 24.2 93 0.8 SSW 19 20 10 11 1011.2 - -
23/04:00am 25.4 28.5 24.2 93 0.8 SSW 15 19 8 10 1011.3 1011.1 -
23/03:30am 25.8 28.1 24.4 92 1.0 S 20 22 11 12 1011.4 - -
23/03:00am 26.2 28.9 24.1 88 1.4 SW 17 20 9 11 1011.4 1011.2 -
23/02:30am 26.3 27.9 22.8 81 2.4 SW 19 20 10 11 1011.5 - -
23/02:00am 26.5 28.2 23.4 83 2.1 WSW 20 24 11 13 1011.6 1011.4 -
23/01:30am 26.4 28.3 23.5 84 2.0 WSW 19 20 10 11 1011.9 - -
23/01:00am 26.5 28.3 23.2 82 2.2 WSW 19 20 10 11 1012.2 1012.0 -
23/12:30am 26.4 28.7 22.7 80 2.5 W 15 19 8 10 1012.5 - -
23/12:00am 26.5 28.5 22.3 78 2.8 W 15 19 8 10 1012.6 1012.5 -
 
Date/Time
WST
Temp
°C
App
Temp
°C
Dew
Point
Rel
Hum
%
Delta-T
°C
Wind Press
QNH
hPa
Press
MSL
hPa
Rain
since 9 am
mm
Dir
 
Spd
km/h
Gust
km/h
Spd
kts
Gust
kts
22/11:30pm 26.6 28.0 21.8 75 3.2 W 17 19 9 10 1012.6 - -
22/11:00pm 26.6 28.2 21.4 73 3.5 W 15 20 8 11 1012.9 1012.8 -
22/10:30pm 26.6 28.6 22.2 77 3.0 W 15 19 8 10 1013.1 - -
22/10:00pm 26.7 28.5 21.9 75 3.2 W 15 19 8 10 1013.2 1013.1 -
22/09:30pm 26.9 28.2 21.6 72 3.5 WNW 17 19 9 10 1013.3 - -
22/09:00pm 27.1 28.4 21.6 72 3.7 NW 17 19 9 10 1013.2 1013.1 -
22/08:30pm 26.8 29.2 22.2 76 3.1 NW 13 17 7 9 1012.9 - -
22/08:00pm 26.9 29.2 22.7 78 2.8 NW 15 17 8 9 1012.6 1012.5 -
22/07:30pm 27.3 29.6 22.7 76 3.1 NW 15 17 8 9 1012.4 - -
22/07:00pm 27.4 30.3 22.4 74 3.4 NW 11 13 6 7 1012.0 1011.8 -
22/06:30pm 27.4 30.4 21.9 72 3.7 NW 9 11 5 6 1011.9 - -
22/06:00pm 27.7 30.9 21.7 70 4.0 NNW 7 9 4 5 1011.8 1011.6 -
22/05:30pm 28.4 31.3 21.7 67 4.5 NNW 9 13 5 7 1011.6 - -
22/05:00pm 29.2 31.5 21.4 63 5.2 NNW 11 15 6 8 1011.6 1011.4 -
22/04:30pm 29.5 30.9 20.4 58 6.0 NNW 13 15 7 8 1011.6 - -
22/04:00pm 29.9 31.2 20.2 56 6.4 NNW 13 17 7 9 1011.5 1011.3 -
22/03:30pm 30.1 31.3 19.8 54 6.8 NNW 13 17 7 9 1011.4 - -
22/03:00pm 30.3 32.3 20.8 56 6.3 N 11 15 6 8 1011.3 1011.1 -
22/02:30pm 30.0 32.2 21.1 59 5.9 N 11 13 6 7 1011.3 - -
22/02:00pm 30.7 32.8 20.9 56 6.5 N 11 13 6 7 1011.3 1011.1 -
22/01:30pm 30.5 32.6 21.0 57 6.3 N 11 13 6 7 1011.5 - -
22/01:00pm 30.7 33.3 21.2 57 6.4 N 9 13 5 7 1011.8 1011.6 -
22/12:30pm 30.4 33.0 21.2 58 6.2 N 9 13 5 7 1012.0 - -
22/12:00pm 30.2 32.3 20.2 55 6.6 N 9 13 5 7 1012.1 1011.9 -
22/11:30am 32.0 34.1 19.3 47 8.3 WNW 7 13 4 7 1012.6 - -
22/11:00am 30.9 33.2 19.9 52 7.3 W 7 13 4 7 1012.9 1012.8 -
22/10:30am 30.0 31.9 20.5 56 6.3 SW 11 15 6 8 1013.1 - -
22/10:00am 30.0 33.1 22.2 63 5.3 SW 9 13 5 7 1013.0 1012.9 -
22/09:30am 29.4 32.1 23.4 70 4.1 SSW 15 19 8 10 1013.0 - -
22/09:00am 28.5 31.9 24.1 77 3.0 SSW 13 17 7 9 1012.9 1012.8 -
22/08:30am 28.7 31.6 23.1 71 3.8 SW 13 15 7 8 1012.9 - -
22/08:00am 28.1 31.3 23.0 74 3.5 SW 11 15 6 8 1012.8 1012.7 -
22/07:30am 27.4 31.4 23.8 81 2.5 SSW 9 13 5 7 1012.6 - -
22/07:00am 26.0 29.3 23.9 88 1.4 SW 13 15 7 8 1012.3 1012.1 -
22/06:30am 25.4 28.5 23.6 90 1.2 SW 13 13 7 7 1012.0 - -
22/06:00am 25.7 28.1 23.6 88 1.4 SW 17 19 9 10 1011.9 1011.7 -
22/05:30am 25.8 28.8 24.0 90 1.2 SW 15 19 8 10 1011.8 - -
22/05:00am 26.2 28.2 23.9 87 1.6 SW 20 24 11 13 1011.6 1011.4 -
22/04:30am 26.2 28.3 23.7 86 1.7 SW 19 24 10 13 1011.4 - -
22/04:00am 26.5 27.1 22.8 80 2.5 SW 24 28 13 15 1011.4 1011.2 -
22/03:30am 26.6 27.0 21.8 75 3.2 SW 22 28 12 15 1011.5 - -
22/03:00am 26.5 28.1 22.1 77 3.0 WSW 17 20 9 11 1011.7 1011.5 -
22/02:30am 26.4 27.8 22.5 79 2.6 WSW 19 22 10 12 1011.8 - -
22/02:00am 26.5 27.7 22.1 77 3.0 WSW 19 20 10 11 1012.0 1011.8 -
22/01:30am 26.6 27.7 22.0 76 3.1 WSW 19 20 10 11 1012.2 - -
22/01:00am 26.8 27.8 22.2 76 3.1 WSW 20 24 11 13 1012.5 1012.4 -
22/12:30am 26.9 28.0 22.3 76 3.1 WSW 20 24 11 13 1012.7 - -
22/12:00am 27.0 27.7 22.2 75 3.2 WSW 22 26 12 14 1012.8 1012.7 -
 
Date/Time
WST
Temp
°C
App
Temp
°C
Dew
Point
Rel
Hum
%
Delta-T
°C
Wind Press
QNH
hPa
Press
MSL
hPa
Rain
since 9 am
mm
Dir
 
Spd
km/h
Gust
km/h
Spd
kts
Gust
kts
21/11:30pm 27.0 27.7 21.5 72 3.7 WSW 20 24 11 13 1012.9 - -
21/11:00pm 27.0 27.8 21.7 73 3.5 W 20 24 11 13 1013.0 1012.9 -
21/10:30pm 27.2 28.0 21.7 72 3.7 W 20 22 11 12 1013.2 - -
21/10:00pm 27.3 28.3 21.8 72 3.7 W 19 22 10 12 1013.3 1013.2 -
21/09:30pm 27.4 28.5 21.9 72 3.7 WNW 19 20 10 11 1013.1 - -
21/09:00pm 27.5 29.0 22.0 72 3.7 WNW 17 20 9 11 1013.0 1012.9 -
21/08:30pm 27.6 28.8 22.1 72 3.7 NW 19 22 10 12 1012.7 - -
21/08:00pm 27.6 29.0 21.9 71 3.8 NW 17 20 9 11 1012.6 1012.5 -
21/07:30pm 28.0 29.8 21.8 69 4.2 NW 15 19 8 10 1012.3 - -
21/07:00pm 28.2 29.9 21.7 68 4.4 NNW 15 19 8 10 1012.2 1012.0 -
21/06:30pm 28.4 29.6 21.4 66 4.7 NNW 17 19 9 10 1011.9 - -
21/06:00pm 28.4 30.5 21.7 67 4.5 NNW 13 15 7 8 1011.6 1011.4 -
21/05:30pm 29.0 31.0 21.5 64 5.0 NNW 13 15 7 8 1011.5 - -
21/05:00pm 29.6 31.7 21.0 60 5.7 NNW 11 13 6 7 1011.3 1011.1 -
21/04:30pm 30.2 32.1 21.3 59 6.0 NNW 13 15 7 8 1011.2 - -
21/04:00pm 30.6 32.2 20.8 56 6.5 NNW 13 15 7 8 1011.0 1010.8 -
21/03:30pm 31.1 32.5 20.4 53 7.1 NNW 13 17 7 9 1010.8 - -
21/03:00pm 31.2 33.1 21.4 56 6.6 NNW 13 17 7 9 1010.9 1010.7 -
21/02:30pm 31.0 32.8 21.2 56 6.6 NNW 13 17 7 9 1010.8 - -
21/02:00pm 31.0 33.2 21.8 58 6.2 NNW 13 15 7 8 1010.9 1010.7 -

Other Formats:

Comma delimited format used in spreadsheet applications
http://www.bom.gov.au/fwo/IDW60801/IDW60801.94307.axf

JavaScript Object Notation format (JSON) in row-major order
http://www.bom.gov.au/fwo/IDW60801/IDW60801.94307.json